Sorrento, Canada
Current Conditions -  °F | °C
As of 1:00 AM on Monday 20 Oct 2014 (Local Time) from CYKA Reporting Station
Broken Clouds Broken Clouds  
Wind Chill: 59°   Ceiling: 25000
Heat Index: 59°   Visibility: 40mi
Dew Point: 45°   Wind: 12mph
Humidity: 59%   Direction: 60°ENE
Pressure: 29.64"   Gusts: NA
Location:  50.88°N, 119.41°W
Report Text: CYKA 200800Z 06010KT 40SM BKN250 15/07 A2964 RMK CI7 SLP036 DENSITY ALT 1700FT
Loading
Personal Weather Stations






























Interactive Weather Map
Tropical Storm Tracking
New forecast layout! Learn more

10-Day Weather Forecast

Advertisements
Track Severe Weather on mobile